sensor_id;sensor_type;location;lat;lon;timestamp;temperature;humidity
2625;DHT22;1322;53.256;10.386;2023-04-03T00:01:35;2.80;99.90
2625;DHT22;1322;53.256;10.386;2023-04-03T00:04:04;2.80;99.90
2625;DHT22;1322;53.256;10.386;2023-04-03T00:06:30;2.80;99.90
2625;DHT22;1322;53.256;10.386;2023-04-03T00:08:56;2.70;99.90
2625;DHT22;1322;53.256;10.386;2023-04-03T00:11:22;2.70;99.90
2625;DHT22;1322;53.256;10.386;2023-04-03T00:13:48;2.70;99.90
2625;DHT22;1322;53.256;10.386;2023-04-03T00:16:13;2.60;99.90
2625;DHT22;1322;53.256;10.386;2023-04-03T00:18:39;2.60;99.90
2625;DHT22;1322;53.256;10.386;2023-04-03T00:21:06;2.50;99.90
2625;DHT22;1322;53.256;10.386;2023-04-03T00:23:33;2.50;99.90
2625;DHT22;1322;53.256;10.386;2023-04-03T00:25:58;2.50;99.90
2625;DHT22;1322;53.256;10.386;2023-04-03T00:28:24;2.40;99.90
2625;DHT22;1322;53.256;10.386;2023-04-03T00:30:51;2.40;99.90
2625;DHT22;1322;53.256;10.386;2023-04-03T00:33:17;2.40;99.90
2625;DHT22;1322;53.256;10.386;2023-04-03T00:35:43;2.30;99.90
2625;DHT22;1322;53.256;10.386;2023-04-03T00:38:11;2.30;99.90
2625;DHT22;1322;53.256;10.386;2023-04-03T00:40:39;2.30;99.90
2625;DHT22;1322;53.256;10.386;2023-04-03T00:43:23;2.30;99.90
2625;DHT22;1322;53.256;10.386;2023-04-03T00:45:52;2.30;99.90
2625;DHT22;1322;53.256;10.386;2023-04-03T00:48:44;2.30;99.90
2625;DHT22;1322;53.256;10.386;2023-04-03T00:51:18;2.20;99.90
2625;DHT22;1322;53.256;10.386;2023-04-03T00:54:06;2.20;99.90
2625;DHT22;1322;53.256;10.386;2023-04-03T00:56:33;2.20;99.90
2625;DHT22;1322;53.256;10.386;2023-04-03T00:59:14;2.20;99.90
2625;DHT22;1322;53.256;10.386;2023-04-03T01:01:40;2.20;99.90
2625;DHT22;1322;53.256;10.386;2023-04-03T01:07:15;2.20;99.90
2625;DHT22;1322;53.256;10.386;2023-04-03T01:09:43;2.10;99.90
2625;DHT22;1322;53.256;10.386;2023-04-03T01:12:18;2.10;99.90
2625;DHT22;1322;53.256;10.386;2023-04-03T01:14:45;2.20;99.90
2625;DHT22;1322;53.256;10.386;2023-04-03T01:25:45;2.10;99.90
2625;DHT22;1322;53.256;10.386;2023-04-03T01:28:21;2.10;99.90
2625;DHT22;1322;53.256;10.386;2023-04-03T01:33:41;2.10;99.90
2625;DHT22;1322;53.256;10.386;2023-04-03T01:36:08;2.10;99.90
2625;DHT22;1322;53.256;10.386;2023-04-03T01:38:34;2.10;99.90
2625;DHT22;1322;53.256;10.386;2023-04-03T01:41:00;2.10;99.90
2625;DHT22;1322;53.256;10.386;2023-04-03T01:43:26;2.10;99.90
2625;DHT22;1322;53.256;10.386;2023-04-03T01:45:52;2.10;99.90
2625;DHT22;1322;53.256;10.386;2023-04-03T01:48:19;2.00;99.90
2625;DHT22;1322;53.256;10.386;2023-04-03T01:50:45;2.10;99.90
2625;DHT22;1322;53.256;10.386;2023-04-03T01:53:12;2.10;99.90
2625;DHT22;1322;53.256;10.386;2023-04-03T01:55:38;2.10;99.90
2625;DHT22;1322;53.256;10.386;2023-04-03T01:58:04;2.10;99.90
2625;DHT22;1322;53.256;10.386;2023-04-03T02:00:30;2.00;99.90
2625;DHT22;1322;53.256;10.386;2023-04-03T02:02:56;2.10;99.90
2625;DHT22;1322;53.256;10.386;2023-04-03T02:05:22;2.10;99.90
2625;DHT22;1322;53.256;10.386;2023-04-03T02:07:48;2.10;99.90
2625;DHT22;1322;53.256;10.386;2023-04-03T02:10:13;2.10;99.90
2625;DHT22;1322;53.256;10.386;2023-04-03T02:12:39;2.00;99.90
2625;DHT22;1322;53.256;10.386;2023-04-03T02:15:05;2.00;99.90
2625;DHT22;1322;53.256;10.386;2023-04-03T02:17:31;2.00;99.90
2625;DHT22;1322;53.256;10.386;2023-04-03T02:19:57;1.90;99.90
2625;DHT22;1322;53.256;10.386;2023-04-03T02:22:22;2.00;99.90
2625;DHT22;1322;53.256;10.386;2023-04-03T02:24:48;2.00;99.90
2625;DHT22;1322;53.256;10.386;2023-04-03T02:27:14;1.90;99.90
2625;DHT22;1322;53.256;10.386;2023-04-03T02:29:40;1.90;99.90
2625;DHT22;1322;53.256;10.386;2023-04-03T02:32:05;1.90;99.90
2625;DHT22;1322;53.256;10.386;2023-04-03T02:34:31;1.90;99.90
2625;DHT22;1322;53.256;10.386;2023-04-03T02:36:56;1.90;99.90
2625;DHT22;1322;53.256;10.386;2023-04-03T02:39:22;1.90;99.90
2625;DHT22;1322;53.256;10.386;2023-04-03T02:41:48;1.90;99.90
2625;DHT22;1322;53.256;10.386;2023-04-03T02:44:13;1.90;99.90
2625;DHT22;1322;53.256;10.386;2023-04-03T02:46:39;2.00;99.90
2625;DHT22;1322;53.256;10.386;2023-04-03T02:49:08;1.90;99.90
2625;DHT22;1322;53.256;10.386;2023-04-03T02:51:33;1.90;99.90
2625;DHT22;1322;53.256;10.386;2023-04-03T02:53:59;1.90;99.90
2625;DHT22;1322;53.256;10.386;2023-04-03T02:56:24;1.90;99.90
2625;DHT22;1322;53.256;10.386;2023-04-03T02:58:52;1.90;99.90
2625;DHT22;1322;53.256;10.386;2023-04-03T03:01:18;1.80;99.90
2625;DHT22;1322;53.256;10.386;2023-04-03T03:03:43;1.80;99.90
2625;DHT22;1322;53.256;10.386;2023-04-03T03:06:13;1.80;99.90
2625;DHT22;1322;53.256;10.386;2023-04-03T03:08:40;1.80;99.90
2625;DHT22;1322;53.256;10.386;2023-04-03T03:11:06;1.80;99.90
2625;DHT22;1322;53.256;10.386;2023-04-03T03:13:33;1.80;99.90
2625;DHT22;1322;53.256;10.386;2023-04-03T03:15:59;1.80;99.90
2625;DHT22;1322;53.256;10.386;2023-04-03T03:18:25;1.80;99.90
2625;DHT22;1322;53.256;10.386;2023-04-03T03:20:52;1.80;99.90
2625;DHT22;1322;53.256;10.386;2023-04-03T03:23:18;1.80;99.90
2625;DHT22;1322;53.256;10.386;2023-04-03T03:25:43;1.80;99.90
2625;DHT22;1322;53.256;10.386;2023-04-03T03:28:09;1.80;99.90
2625;DHT22;1322;53.256;10.386;2023-04-03T03:30:35;1.80;99.90
2625;DHT22;1322;53.256;10.386;2023-04-03T03:33:01;1.70;99.90
2625;DHT22;1322;53.256;10.386;2023-04-03T03:35:26;1.70;99.90
2625;DHT22;1322;53.256;10.386;2023-04-03T03:37:52;1.60;99.90
2625;DHT22;1322;53.256;10.386;2023-04-03T03:40:18;1.60;99.90
2625;DHT22;1322;53.256;10.386;2023-04-03T03:42:43;1.70;99.90
2625;DHT22;1322;53.256;10.386;2023-04-03T03:45:10;1.60;99.90
2625;DHT22;1322;53.256;10.386;2023-04-03T03:47:35;1.60;99.90
2625;DHT22;1322;53.256;10.386;2023-04-03T03:50:02;1.60;99.90
2625;DHT22;1322;53.256;10.386;2023-04-03T03:52:27;1.60;99.90
2625;DHT22;1322;53.256;10.386;2023-04-03T03:54:53;1.60;99.90
2625;DHT22;1322;53.256;10.386;2023-04-03T03:57:19;1.60;99.90
2625;DHT22;1322;53.256;10.386;2023-04-03T03:59:44;1.70;99.90
2625;DHT22;1322;53.256;10.386;2023-04-03T04:02:11;1.60;99.90
2625;DHT22;1322;53.256;10.386;2023-04-03T04:04:36;1.60;99.90
2625;DHT22;1322;53.256;10.386;2023-04-03T04:07:03;1.60;99.90
2625;DHT22;1322;53.256;10.386;2023-04-03T04:09:28;1.50;99.90
2625;DHT22;1322;53.256;10.386;2023-04-03T04:11:54;1.60;99.90
2625;DHT22;1322;53.256;10.386;2023-04-03T04:14:20;1.60;99.90
2625;DHT22;1322;53.256;10.386;2023-04-03T04:16:46;1.60;99.90
2625;DHT22;1322;53.256;10.386;2023-04-03T04:19:13;1.60;99.90
2625;DHT22;1322;53.256;10.386;2023-04-03T04:21:38;1.60;99.90
2625;DHT22;1322;53.256;10.386;2023-04-03T04:24:05;1.60;99.90
2625;DHT22;1322;53.256;10.386;2023-04-03T04:26:34;1.60;99.90
2625;DHT22;1322;53.256;10.386;2023-04-03T04:29:00;1.70;99.90
2625;DHT22;1322;53.256;10.386;2023-04-03T04:31:25;1.70;99.90
2625;DHT22;1322;53.256;10.386;2023-04-03T04:33:52;1.70;99.90
2625;DHT22;1322;53.256;10.386;2023-04-03T04:36:17;1.70;99.90
2625;DHT22;1322;53.256;10.386;2023-04-03T04:38:43;1.70;99.90
2625;DHT22;1322;53.256;10.386;2023-04-03T04:41:12;1.70;99.90
2625;DHT22;1322;53.256;10.386;2023-04-03T04:43:38;1.60;99.90
2625;DHT22;1322;53.256;10.386;2023-04-03T04:46:06;1.60;99.90
2625;DHT22;1322;53.256;10.386;2023-04-03T04:48:33;1.60;99.90
2625;DHT22;1322;53.256;10.386;2023-04-03T04:50:59;1.60;99.90
2625;DHT22;1322;53.256;10.386;2023-04-03T04:53:24;1.60;99.90
2625;DHT22;1322;53.256;10.386;2023-04-03T04:55:50;1.60;99.90
2625;DHT22;1322;53.256;10.386;2023-04-03T04:58:20;1.60;99.90
2625;DHT22;1322;53.256;10.386;2023-04-03T05:00:46;1.60;99.90
2625;DHT22;1322;53.256;10.386;2023-04-03T05:03:11;1.60;99.90
2625;DHT22;1322;53.256;10.386;2023-04-03T05:05:37;1.60;99.90
2625;DHT22;1322;53.256;10.386;2023-04-03T05:08:04;1.70;99.90
2625;DHT22;1322;53.256;10.386;2023-04-03T05:10:30;1.70;99.90
2625;DHT22;1322;53.256;10.386;2023-04-03T05:12:56;1.80;99.90
2625;DHT22;1322;53.256;10.386;2023-04-03T05:15:22;1.80;99.90
2625;DHT22;1322;53.256;10.386;2023-04-03T05:17:48;1.80;99.90
2625;DHT22;1322;53.256;10.386;2023-04-03T05:20:13;1.90;99.90
2625;DHT22;1322;53.256;10.386;2023-04-03T05:22:39;2.10;99.90
2625;DHT22;1322;53.256;10.386;2023-04-03T05:25:05;2.40;99.90
2625;DHT22;1322;53.256;10.386;2023-04-03T05:27:31;2.60;99.90
2625;DHT22;1322;53.256;10.386;2023-04-03T05:29:57;2.80;99.90
2625;DHT22;1322;53.256;10.386;2023-04-03T05:32:26;3.00;99.90
2625;DHT22;1322;53.256;10.386;2023-04-03T05:34:53;3.30;99.90
2625;DHT22;1322;53.256;10.386;2023-04-03T05:37:19;3.60;99.90
2625;DHT22;1322;53.256;10.386;2023-04-03T05:39:44;3.90;99.90
2625;DHT22;1322;53.256;10.386;2023-04-03T05:42:11;4.00;99.90
2625;DHT22;1322;53.256;10.386;2023-04-03T05:44:37;4.20;99.90
2625;DHT22;1322;53.256;10.386;2023-04-03T05:47:03;4.40;99.90
2625;DHT22;1322;53.256;10.386;2023-04-03T05:49:29;4.60;99.90
2625;DHT22;1322;53.256;10.386;2023-04-03T05:51:55;4.80;99.90
2625;DHT22;1322;53.256;10.386;2023-04-03T05:54:24;4.90;99.90
2625;DHT22;1322;53.256;10.386;2023-04-03T05:56:50;5.00;99.90
2625;DHT22;1322;53.256;10.386;2023-04-03T05:59:17;5.10;99.90
2625;DHT22;1322;53.256;10.386;2023-04-03T06:01:44;5.20;99.90
2625;DHT22;1322;53.256;10.386;2023-04-03T06:04:12;5.50;99.90
2625;DHT22;1322;53.256;10.386;2023-04-03T06:06:49;5.60;99.90
2625;DHT22;1322;53.256;10.386;2023-04-03T06:09:15;5.60;99.90
2625;DHT22;1322;53.256;10.386;2023-04-03T06:11:42;5.70;99.90
2625;DHT22;1322;53.256;10.386;2023-04-03T06:14:08;5.80;99.90
2625;DHT22;1322;53.256;10.386;2023-04-03T06:16:34;5.80;99.90
2625;DHT22;1322;53.256;10.386;2023-04-03T06:18:59;5.90;99.90
2625;DHT22;1322;53.256;10.386;2023-04-03T06:21:26;5.90;99.90
2625;DHT22;1322;53.256;10.386;2023-04-03T06:23:51;6.10;99.90
2625;DHT22;1322;53.256;10.386;2023-04-03T06:26:17;6.10;99.90
2625;DHT22;1322;53.256;10.386;2023-04-03T06:28:43;6.20;99.90
2625;DHT22;1322;53.256;10.386;2023-04-03T06:31:09;6.00;99.90
2625;DHT22;1322;53.256;10.386;2023-04-03T06:33:34;6.00;99.90
2625;DHT22;1322;53.256;10.386;2023-04-03T06:36:04;6.20;99.90
2625;DHT22;1322;53.256;10.386;2023-04-03T06:38:30;6.50;99.90
2625;DHT22;1322;53.256;10.386;2023-04-03T06:40:56;6.70;99.90
2625;DHT22;1322;53.256;10.386;2023-04-03T06:43:22;6.80;99.90
2625;DHT22;1322;53.256;10.386;2023-04-03T06:45:48;6.90;99.90
2625;DHT22;1322;53.256;10.386;2023-04-03T06:48:14;6.90;99.90
2625;DHT22;1322;53.256;10.386;2023-04-03T06:50:39;6.90;99.90
2625;DHT22;1322;53.256;10.386;2023-04-03T06:53:06;6.80;99.90
2625;DHT22;1322;53.256;10.386;2023-04-03T06:55:32;7.00;99.90
2625;DHT22;1322;53.256;10.386;2023-04-03T06:57:58;6.90;99.90
2625;DHT22;1322;53.256;10.386;2023-04-03T07:00:24;6.80;99.90
2625;DHT22;1322;53.256;10.386;2023-04-03T07:02:50;6.70;99.90
2625;DHT22;1322;53.256;10.386;2023-04-03T07:05:16;6.70;99.90
2625;DHT22;1322;53.256;10.386;2023-04-03T07:07:41;6.70;99.90
2625;DHT22;1322;53.256;10.386;2023-04-03T07:10:08;6.60;99.90
2625;DHT22;1322;53.256;10.386;2023-04-03T07:12:33;6.70;99.90
2625;DHT22;1322;53.256;10.386;2023-04-03T07:14:59;6.70;99.90
2625;DHT22;1322;53.256;10.386;2023-04-03T07:17:25;6.80;99.90
2625;DHT22;1322;53.256;10.386;2023-04-03T07:19:51;6.70;99.90
2625;DHT22;1322;53.256;10.386;2023-04-03T07:22:17;6.70;99.90
2625;DHT22;1322;53.256;10.386;2023-04-03T07:24:43;6.60;99.90
2625;DHT22;1322;53.256;10.386;2023-04-03T07:27:09;6.20;99.90
2625;DHT22;1322;53.256;10.386;2023-04-03T07:29:35;6.00;99.90
2625;DHT22;1322;53.256;10.386;2023-04-03T07:32:01;5.90;99.90
2625;DHT22;1322;53.256;10.386;2023-04-03T07:34:27;5.80;99.90
2625;DHT22;1322;53.256;10.386;2023-04-03T07:36:53;5.80;99.90
2625;DHT22;1322;53.256;10.386;2023-04-03T07:39:19;5.90;99.90
2625;DHT22;1322;53.256;10.386;2023-04-03T07:41:44;5.70;99.90
2625;DHT22;1322;53.256;10.386;2023-04-03T07:44:11;5.90;99.90
2625;DHT22;1322;53.256;10.386;2023-04-03T07:46:37;6.00;99.90
2625;DHT22;1322;53.256;10.386;2023-04-03T07:49:03;6.20;99.90
2625;DHT22;1322;53.256;10.386;2023-04-03T07:51:29;6.00;99.90
2625;DHT22;1322;53.256;10.386;2023-04-03T07:53:55;6.10;99.90
2625;DHT22;1322;53.256;10.386;2023-04-03T07:56:21;6.10;99.90
2625;DHT22;1322;53.256;10.386;2023-04-03T07:58:46;6.10;99.90
2625;DHT22;1322;53.256;10.386;2023-04-03T08:01:15;5.90;99.90
2625;DHT22;1322;53.256;10.386;2023-04-03T08:03:41;6.20;99.90
2625;DHT22;1322;53.256;10.386;2023-04-03T08:06:08;6.30;99.90
2625;DHT22;1322;53.256;10.386;2023-04-03T08:08:33;6.30;99.90
2625;DHT22;1322;53.256;10.386;2023-04-03T08:11:01;6.30;99.90
2625;DHT22;1322;53.256;10.386;2023-04-03T08:13:28;6.30;99.90
2625;DHT22;1322;53.256;10.386;2023-04-03T08:15:54;6.00;99.90
2625;DHT22;1322;53.256;10.386;2023-04-03T08:18:22;6.00;99.90
2625;DHT22;1322;53.256;10.386;2023-04-03T08:20:51;6.00;99.90
2625;DHT22;1322;53.256;10.386;2023-04-03T08:23:17;6.00;99.90
2625;DHT22;1322;53.256;10.386;2023-04-03T08:25:43;6.20;99.90
2625;DHT22;1322;53.256;10.386;2023-04-03T08:28:11;6.20;99.90
2625;DHT22;1322;53.256;10.386;2023-04-03T08:30:39;6.50;99.90
2625;DHT22;1322;53.256;10.386;2023-04-03T08:33:06;6.60;99.90
2625;DHT22;1322;53.256;10.386;2023-04-03T08:35:32;6.50;99.90
2625;DHT22;1322;53.256;10.386;2023-04-03T08:37:58;6.60;99.90
2625;DHT22;1322;53.256;10.386;2023-04-03T08:40:23;6.60;99.90
2625;DHT22;1322;53.256;10.386;2023-04-03T08:42:58;6.40;99.90
2625;DHT22;1322;53.256;10.386;2023-04-03T08:45:51;6.40;99.90
2625;DHT22;1322;53.256;10.386;2023-04-03T08:48:44;6.40;99.90
2625;DHT22;1322;53.256;10.386;2023-04-03T08:51:14;6.30;99.90
2625;DHT22;1322;53.256;10.386;2023-04-03T08:53:54;6.50;99.90
2625;DHT22;1322;53.256;10.386;2023-04-03T08:56:21;6.80;99.90
2625;DHT22;1322;53.256;10.386;2023-04-03T08:58:52;6.70;99.90
2625;DHT22;1322;53.256;10.386;2023-04-03T09:01:33;6.70;99.90
2625;DHT22;1322;53.256;10.386;2023-04-03T09:04:01;6.90;99.90
2625;DHT22;1322;53.256;10.386;2023-04-03T09:09:39;7.00;99.90
2625;DHT22;1322;53.256;10.386;2023-04-03T09:12:20;6.70;99.90
2625;DHT22;1322;53.256;10.386;2023-04-03T09:15:22;6.60;99.90
2625;DHT22;1322;53.256;10.386;2023-04-03T09:18:02;6.60;99.90
2625;DHT22;1322;53.256;10.386;2023-04-03T09:20:53;6.90;99.90
2625;DHT22;1322;53.256;10.386;2023-04-03T09:23:49;7.20;99.90
2625;DHT22;1322;53.256;10.386;2023-04-03T09:26:33;7.30;99.90
2625;DHT22;1322;53.256;10.386;2023-04-03T09:29:05;7.40;99.90
2625;DHT22;1322;53.256;10.386;2023-04-03T09:31:40;7.50;99.90
2625;DHT22;1322;53.256;10.386;2023-04-03T09:36:43;7.70;99.90
2625;DHT22;1322;53.256;10.386;2023-04-03T09:42:04;7.40;99.90
2625;DHT22;1322;53.256;10.386;2023-04-03T09:44:36;7.50;99.90
2625;DHT22;1322;53.256;10.386;2023-04-03T09:47:25;7.70;99.90
2625;DHT22;1322;53.256;10.386;2023-04-03T09:49:51;7.90;99.90
2625;DHT22;1322;53.256;10.386;2023-04-03T09:52:34;7.90;99.90
2625;DHT22;1322;53.256;10.386;2023-04-03T09:55:22;7.80;99.90
2625;DHT22;1322;53.256;10.386;2023-04-03T09:57:57;7.80;99.90
2625;DHT22;1322;53.256;10.386;2023-04-03T10:00:25;7.70;99.90
2625;DHT22;1322;53.256;10.386;2023-04-03T10:02:56;7.70;99.90
2625;DHT22;1322;53.256;10.386;2023-04-03T10:05:30;7.80;99.90
2625;DHT22;1322;53.256;10.386;2023-04-03T10:10:47;7.80;99.90
2625;DHT22;1322;53.256;10.386;2023-04-03T10:13:19;7.80;99.90
2625;DHT22;1322;53.256;10.386;2023-04-03T10:15:51;7.90;99.90
2625;DHT22;1322;53.256;10.386;2023-04-03T10:21:20;8.10;99.90
2625;DHT22;1322;53.256;10.386;2023-04-03T10:23:55;7.90;99.90
2625;DHT22;1322;53.256;10.386;2023-04-03T10:26:58;7.90;99.90
2625;DHT22;1322;53.256;10.386;2023-04-03T10:32:25;8.00;99.90
2625;DHT22;1322;53.256;10.386;2023-04-03T10:35:16;8.00;99.90
2625;DHT22;1322;53.256;10.386;2023-04-03T10:37:50;7.90;99.90
2625;DHT22;1322;53.256;10.386;2023-04-03T10:40:40;8.00;99.90
2625;DHT22;1322;53.256;10.386;2023-04-03T10:43:27;8.00;99.90
2625;DHT22;1322;53.256;10.386;2023-04-03T10:46:05;8.10;99.90
2625;DHT22;1322;53.256;10.386;2023-04-03T10:52:06;8.50;99.90
2625;DHT22;1322;53.256;10.386;2023-04-03T10:54:38;8.40;99.90
2625;DHT22;1322;53.256;10.386;2023-04-03T10:57:08;8.50;99.90
2625;DHT22;1322;53.256;10.386;2023-04-03T11:02:18;9.00;99.90
2625;DHT22;1322;53.256;10.386;2023-04-03T11:04:51;9.00;99.90
2625;DHT22;1322;53.256;10.386;2023-04-03T11:07:26;8.90;99.90
2625;DHT22;1322;53.256;10.386;2023-04-03T11:10:21;8.80;99.90
2625;DHT22;1322;53.256;10.386;2023-04-03T11:12:56;8.60;99.90
2625;DHT22;1322;53.256;10.386;2023-04-03T11:15:24;8.60;99.90
2625;DHT22;1322;53.256;10.386;2023-04-03T11:18:27;8.30;99.90
2625;DHT22;1322;53.256;10.386;2023-04-03T11:21:21;8.10;99.90
2625;DHT22;1322;53.256;10.386;2023-04-03T11:23:51;8.30;99.90
2625;DHT22;1322;53.256;10.386;2023-04-03T11:26:26;8.20;99.90
2625;DHT22;1322;53.256;10.386;2023-04-03T11:29:01;8.20;99.90
2625;DHT22;1322;53.256;10.386;2023-04-03T11:36:37;8.20;99.90
2625;DHT22;1322;53.256;10.386;2023-04-03T11:39:19;8.40;99.90
2625;DHT22;1322;53.256;10.386;2023-04-03T11:41:47;8.50;99.90
2625;DHT22;1322;53.256;10.386;2023-04-03T11:44:32;8.70;99.90
2625;DHT22;1322;53.256;10.386;2023-04-03T11:46:59;9.10;99.90
2625;DHT22;1322;53.256;10.386;2023-04-03T11:49:51;9.10;99.90
2625;DHT22;1322;53.256;10.386;2023-04-03T12:16:02;9.00;99.90
2625;DHT22;1322;53.256;10.386;2023-04-03T12:21:11;8.60;99.90
2625;DHT22;1322;53.256;10.386;2023-04-03T12:40:08;9.00;99.90
2625;DHT22;1322;53.256;10.386;2023-04-03T12:45:56;8.60;99.90
2625;DHT22;1322;53.256;10.386;2023-04-03T12:48:26;8.50;99.90
2625;DHT22;1322;53.256;10.386;2023-04-03T12:50:54;8.50;99.90
2625;DHT22;1322;53.256;10.386;2023-04-03T12:53:28;8.40;99.90
2625;DHT22;1322;53.256;10.386;2023-04-03T12:56:19;8.30;99.90
2625;DHT22;1322;53.256;10.386;2023-04-03T12:58:46;8.50;99.90
2625;DHT22;1322;53.256;10.386;2023-04-03T13:01:15;8.60;99.90
2625;DHT22;1322;53.256;10.386;2023-04-03T13:03:45;8.70;99.90
2625;DHT22;1322;53.256;10.386;2023-04-03T13:06:19;8.60;99.90
2625;DHT22;1322;53.256;10.386;2023-04-03T13:11:16;8.60;99.90
2625;DHT22;1322;53.256;10.386;2023-04-03T13:13:55;8.70;99.90
2625;DHT22;1322;53.256;10.386;2023-04-03T13:16:21;8.90;99.90
2625;DHT22;1322;53.256;10.386;2023-04-03T13:18:51;9.00;99.90
2625;DHT22;1322;53.256;10.386;2023-04-03T13:21:21;9.40;99.90
2625;DHT22;1322;53.256;10.386;2023-04-03T13:23:51;9.60;99.90
2625;DHT22;1322;53.256;10.386;2023-04-03T13:26:18;9.60;99.90
2625;DHT22;1322;53.256;10.386;2023-04-03T13:28:46;9.60;99.90
2625;DHT22;1322;53.256;10.386;2023-04-03T13:33:51;9.00;99.90
2625;DHT22;1322;53.256;10.386;2023-04-03T13:36:20;8.70;99.90
2625;DHT22;1322;53.256;10.386;2023-04-03T13:38:58;8.30;99.90
2625;DHT22;1322;53.256;10.386;2023-04-03T13:41:29;8.00;99.90
2625;DHT22;1322;53.256;10.386;2023-04-03T13:43:55;7.90;99.90
2625;DHT22;1322;53.256;10.386;2023-04-03T13:46:27;7.90;99.90
2625;DHT22;1322;53.256;10.386;2023-04-03T13:48:55;7.90;99.90
2625;DHT22;1322;53.256;10.386;2023-04-03T13:51:27;8.00;99.90
2625;DHT22;1322;53.256;10.386;2023-04-03T13:53:57;8.30;99.90
2625;DHT22;1322;53.256;10.386;2023-04-03T13:56:38;8.60;99.90
2625;DHT22;1322;53.256;10.386;2023-04-03T14:01:45;8.70;99.90
2625;DHT22;1322;53.256;10.386;2023-04-03T14:06:42;8.20;99.90
2625;DHT22;1322;53.256;10.386;2023-04-03T14:09:08;8.20;99.90
2625;DHT22;1322;53.256;10.386;2023-04-03T14:11:34;8.20;99.90
2625;DHT22;1322;53.256;10.386;2023-04-03T14:14:05;8.20;99.90
2625;DHT22;1322;53.256;10.386;2023-04-03T14:16:34;8.10;99.90
2625;DHT22;1322;53.256;10.386;2023-04-03T14:19:02;8.10;99.90
2625;DHT22;1322;53.256;10.386;2023-04-03T14:21:28;8.10;99.90
2625;DHT22;1322;53.256;10.386;2023-04-03T14:23:53;8.20;99.90
2625;DHT22;1322;53.256;10.386;2023-04-03T14:26:22;8.10;99.90
2625;DHT22;1322;53.256;10.386;2023-04-03T14:28:51;8.20;99.90
2625;DHT22;1322;53.256;10.386;2023-04-03T14:31:19;8.40;99.90
2625;DHT22;1322;53.256;10.386;2023-04-03T14:33:45;8.60;99.90
2625;DHT22;1322;53.256;10.386;2023-04-03T14:36:22;8.50;99.90
2625;DHT22;1322;53.256;10.386;2023-04-03T14:38:49;8.20;99.90
2625;DHT22;1322;53.256;10.386;2023-04-03T14:41:17;7.90;99.90
2625;DHT22;1322;53.256;10.386;2023-04-03T14:43:44;7.80;99.90
2625;DHT22;1322;53.256;10.386;2023-04-03T14:46:19;7.90;99.90
2625;DHT22;1322;53.256;10.386;2023-04-03T14:48:47;7.90;99.90
2625;DHT22;1322;53.256;10.386;2023-04-03T14:51:14;7.80;99.90
2625;DHT22;1322;53.256;10.386;2023-04-03T14:53:41;7.90;99.90
2625;DHT22;1322;53.256;10.386;2023-04-03T14:56:24;8.00;99.90
2625;DHT22;1322;53.256;10.386;2023-04-03T14:58:55;7.80;99.90
2625;DHT22;1322;53.256;10.386;2023-04-03T15:01:22;7.80;99.90
2625;DHT22;1322;53.256;10.386;2023-04-03T15:03:47;7.80;99.90
2625;DHT22;1322;53.256;10.386;2023-04-03T15:06:14;7.80;99.90
2625;DHT22;1322;53.256;10.386;2023-04-03T15:08:43;7.70;99.90
2625;DHT22;1322;53.256;10.386;2023-04-03T15:11:10;7.60;99.90
2625;DHT22;1322;53.256;10.386;2023-04-03T15:13:37;7.70;99.90
2625;DHT22;1322;53.256;10.386;2023-04-03T15:16:04;7.60;99.90
2625;DHT22;1322;53.256;10.386;2023-04-03T15:18:35;7.70;99.90
2625;DHT22;1322;53.256;10.386;2023-04-03T15:21:03;7.60;99.90
2625;DHT22;1322;53.256;10.386;2023-04-03T15:23:28;7.60;99.90
2625;DHT22;1322;53.256;10.386;2023-04-03T15:25:55;7.50;99.90
2625;DHT22;1322;53.256;10.386;2023-04-03T15:28:28;7.50;99.90
2625;DHT22;1322;53.256;10.386;2023-04-03T15:30:54;7.40;99.90
2625;DHT22;1322;53.256;10.386;2023-04-03T15:33:20;7.40;99.90
2625;DHT22;1322;53.256;10.386;2023-04-03T15:35:46;7.50;99.90
2625;DHT22;1322;53.256;10.386;2023-04-03T15:38:11;7.50;99.90
2625;DHT22;1322;53.256;10.386;2023-04-03T15:40:37;7.40;99.90
2625;DHT22;1322;53.256;10.386;2023-04-03T15:43:05;7.40;99.90
2625;DHT22;1322;53.256;10.386;2023-04-03T15:45:32;7.40;99.90
2625;DHT22;1322;53.256;10.386;2023-04-03T15:47:59;7.40;99.90
2625;DHT22;1322;53.256;10.386;2023-04-03T15:50:25;7.50;99.90
2625;DHT22;1322;53.256;10.386;2023-04-03T15:52:52;7.40;99.90
2625;DHT22;1322;53.256;10.386;2023-04-03T15:55:24;7.40;99.90
2625;DHT22;1322;53.256;10.386;2023-04-03T15:57:50;7.50;99.90
2625;DHT22;1322;53.256;10.386;2023-04-03T16:00:16;7.50;99.90
2625;DHT22;1322;53.256;10.386;2023-04-03T16:02:44;7.50;99.90
2625;DHT22;1322;53.256;10.386;2023-04-03T16:05:10;7.50;99.90
2625;DHT22;1322;53.256;10.386;2023-04-03T16:07:38;7.30;99.90
2625;DHT22;1322;53.256;10.386;2023-04-03T16:10:05;7.30;99.90
2625;DHT22;1322;53.256;10.386;2023-04-03T16:12:31;7.20;99.90
2625;DHT22;1322;53.256;10.386;2023-04-03T16:14:56;7.10;99.90
2625;DHT22;1322;53.256;10.386;2023-04-03T16:17:26;7.20;99.90
2625;DHT22;1322;53.256;10.386;2023-04-03T16:19:52;7.20;99.90
2625;DHT22;1322;53.256;10.386;2023-04-03T16:22:19;7.20;99.90
2625;DHT22;1322;53.256;10.386;2023-04-03T16:24:44;7.10;99.90
2625;DHT22;1322;53.256;10.386;2023-04-03T16:27:10;7.00;99.90
2625;DHT22;1322;53.256;10.386;2023-04-03T16:29:36;7.10;99.90
2625;DHT22;1322;53.256;10.386;2023-04-03T16:32:02;6.90;99.90
2625;DHT22;1322;53.256;10.386;2023-04-03T16:34:28;6.90;99.90
2625;DHT22;1322;53.256;10.386;2023-04-03T16:36:56;6.90;99.90
2625;DHT22;1322;53.256;10.386;2023-04-03T16:39:21;6.80;99.90
2625;DHT22;1322;53.256;10.386;2023-04-03T16:41:47;6.70;99.90
2625;DHT22;1322;53.256;10.386;2023-04-03T16:44:13;6.60;99.90
2625;DHT22;1322;53.256;10.386;2023-04-03T16:46:39;6.50;99.90
2625;DHT22;1322;53.256;10.386;2023-04-03T16:49:05;6.60;99.90
2625;DHT22;1322;53.256;10.386;2023-04-03T16:51:30;6.60;99.90
2625;DHT22;1322;53.256;10.386;2023-04-03T16:53:57;6.60;99.90
2625;DHT22;1322;53.256;10.386;2023-04-03T16:56:23;6.50;99.90
2625;DHT22;1322;53.256;10.386;2023-04-03T16:58:49;6.50;99.90
2625;DHT22;1322;53.256;10.386;2023-04-03T17:01:17;6.40;99.90
2625;DHT22;1322;53.256;10.386;2023-04-03T17:03:43;6.40;99.90
2625;DHT22;1322;53.256;10.386;2023-04-03T17:06:11;6.30;99.90
2625;DHT22;1322;53.256;10.386;2023-04-03T17:08:45;6.30;99.90
2625;DHT22;1322;53.256;10.386;2023-04-03T17:11:12;6.30;99.90
2625;DHT22;1322;53.256;10.386;2023-04-03T17:13:38;6.10;99.90
2625;DHT22;1322;53.256;10.386;2023-04-03T17:16:06;6.10;99.90
2625;DHT22;1322;53.256;10.386;2023-04-03T17:18:33;6.20;99.90
2625;DHT22;1322;53.256;10.386;2023-04-03T17:21:00;6.10;99.90
2625;DHT22;1322;53.256;10.386;2023-04-03T17:23:27;6.00;99.90
2625;DHT22;1322;53.256;10.386;2023-04-03T17:25:56;6.00;99.90
2625;DHT22;1322;53.256;10.386;2023-04-03T17:28:22;5.90;99.90
2625;DHT22;1322;53.256;10.386;2023-04-03T17:30:54;5.90;99.90
2625;DHT22;1322;53.256;10.386;2023-04-03T17:33:20;5.90;99.90
2625;DHT22;1322;53.256;10.386;2023-04-03T17:35:46;5.80;99.90
2625;DHT22;1322;53.256;10.386;2023-04-03T17:38:11;5.90;99.90
2625;DHT22;1322;53.256;10.386;2023-04-03T17:40:37;5.90;99.90
2625;DHT22;1322;53.256;10.386;2023-04-03T17:43:05;5.80;99.90
2625;DHT22;1322;53.256;10.386;2023-04-03T17:45:31;5.80;99.90
2625;DHT22;1322;53.256;10.386;2023-04-03T17:47:57;5.70;99.90
2625;DHT22;1322;53.256;10.386;2023-04-03T17:50:22;5.70;99.90
2625;DHT22;1322;53.256;10.386;2023-04-03T17:52:48;5.60;99.90